sensor_id;sensor_type;location;lat;lon;timestamp;P1;durP1;ratioP1;P2;durP2;ratioP2
22924;SDS011;11628;51.072;3.712;2022-08-01T00:00:12;10.02;;;5.18;;
22924;SDS011;11628;51.072;3.712;2022-08-01T00:02:39;9.48;;;5.70;;
22924;SDS011;11628;51.072;3.712;2022-08-01T00:05:05;10.02;;;5.35;;
22924;SDS011;11628;51.072;3.712;2022-08-01T00:07:36;8.27;;;5.30;;
22924;SDS011;11628;51.072;3.712;2022-08-01T00:10:03;10.80;;;6.13;;
22924;SDS011;11628;51.072;3.712;2022-08-01T00:12:29;12.55;;;8.52;;
22924;SDS011;11628;51.072;3.712;2022-08-01T00:14:55;14.80;;;9.43;;
22924;SDS011;11628;51.072;3.712;2022-08-01T00:17:21;13.95;;;7.57;;
22924;SDS011;11628;51.072;3.712;2022-08-01T00:19:46;16.58;;;8.30;;
22924;SDS011;11628;51.072;3.712;2022-08-01T00:22:12;13.85;;;8.70;;
22924;SDS011;11628;51.072;3.712;2022-08-01T00:24:38;15.25;;;9.13;;
22924;SDS011;11628;51.072;3.712;2022-08-01T00:27:03;16.35;;;9.70;;
22924;SDS011;11628;51.072;3.712;2022-08-01T00:29:29;18.13;;;10.20;;
22924;SDS011;11628;51.072;3.712;2022-08-01T00:31:55;16.60;;;9.95;;
22924;SDS011;11628;51.072;3.712;2022-08-01T00:34:20;17.77;;;9.90;;
22924;SDS011;11628;51.072;3.712;2022-08-01T00:36:46;17.92;;;11.07;;
22924;SDS011;11628;51.072;3.712;2022-08-01T00:39:12;20.08;;;11.05;;
22924;SDS011;11628;51.072;3.712;2022-08-01T00:41:38;20.75;;;12.10;;
22924;SDS011;11628;51.072;3.712;2022-08-01T00:44:07;19.60;;;12.43;;
22924;SDS011;11628;51.072;3.712;2022-08-01T00:46:32;28.92;;;13.98;;
22924;SDS011;11628;51.072;3.712;2022-08-01T00:48:58;18.30;;;11.75;;
22924;SDS011;11628;51.072;3.712;2022-08-01T00:51:25;18.92;;;13.77;;
22924;SDS011;11628;51.072;3.712;2022-08-01T00:53:52;19.48;;;12.80;;
22924;SDS011;11628;51.072;3.712;2022-08-01T00:56:19;19.20;;;12.23;;
22924;SDS011;11628;51.072;3.712;2022-08-01T00:58:48;22.98;;;13.30;;
22924;SDS011;11628;51.072;3.712;2022-08-01T01:01:15;21.73;;;13.15;;
22924;SDS011;11628;51.072;3.712;2022-08-01T01:03:40;22.67;;;14.38;;
22924;SDS011;11628;51.072;3.712;2022-08-01T01:08:55;28.30;;;15.95;;
22924;SDS011;11628;51.072;3.712;2022-08-01T01:11:31;25.13;;;16.58;;
22924;SDS011;11628;51.072;3.712;2022-08-01T01:14:08;29.63;;;17.02;;
22924;SDS011;11628;51.072;3.712;2022-08-01T01:16:39;25.53;;;17.13;;
22924;SDS011;11628;51.072;3.712;2022-08-01T01:19:09;32.17;;;18.75;;
22924;SDS011;11628;51.072;3.712;2022-08-01T01:21:53;30.38;;;18.80;;
22924;SDS011;11628;51.072;3.712;2022-08-01T01:24:45;29.60;;;19.33;;
22924;SDS011;11628;51.072;3.712;2022-08-01T01:27:36;32.17;;;19.15;;
22924;SDS011;11628;51.072;3.712;2022-08-01T01:30:10;34.92;;;19.10;;
22924;SDS011;11628;51.072;3.712;2022-08-01T01:32:38;29.27;;;19.38;;
22924;SDS011;11628;51.072;3.712;2022-08-01T01:35:08;29.80;;;20.38;;
22924;SDS011;11628;51.072;3.712;2022-08-01T01:37:39;35.92;;;19.52;;
22924;SDS011;11628;51.072;3.712;2022-08-01T01:40:06;25.83;;;16.42;;
22924;SDS011;11628;51.072;3.712;2022-08-01T01:42:34;25.50;;;15.68;;
22924;SDS011;11628;51.072;3.712;2022-08-01T01:45:03;29.63;;;15.55;;
22924;SDS011;11628;51.072;3.712;2022-08-01T01:47:32;21.05;;;12.60;;
22924;SDS011;11628;51.072;3.712;2022-08-01T01:49:59;16.63;;;11.95;;
22924;SDS011;11628;51.072;3.712;2022-08-01T01:52:26;18.63;;;10.07;;
22924;SDS011;11628;51.072;3.712;2022-08-01T01:54:54;15.88;;;8.55;;
22924;SDS011;11628;51.072;3.712;2022-08-01T01:57:22;15.80;;;8.80;;
22924;SDS011;11628;51.072;3.712;2022-08-01T01:59:48;16.15;;;7.75;;
22924;SDS011;11628;51.072;3.712;2022-08-01T02:02:15;15.40;;;7.57;;
22924;SDS011;11628;51.072;3.712;2022-08-01T02:04:42;13.38;;;7.40;;
22924;SDS011;11628;51.072;3.712;2022-08-01T02:07:12;10.57;;;6.75;;
22924;SDS011;11628;51.072;3.712;2022-08-01T02:09:40;13.38;;;7.63;;
22924;SDS011;11628;51.072;3.712;2022-08-01T02:12:09;13.80;;;7.65;;
22924;SDS011;11628;51.072;3.712;2022-08-01T02:14:36;11.70;;;6.38;;
22924;SDS011;11628;51.072;3.712;2022-08-01T02:17:05;11.65;;;6.80;;
22924;SDS011;11628;51.072;3.712;2022-08-01T02:19:34;12.65;;;7.07;;
22924;SDS011;11628;51.072;3.712;2022-08-01T02:22:01;11.48;;;6.65;;
22924;SDS011;11628;51.072;3.712;2022-08-01T02:27:17;12.10;;;5.32;;
22924;SDS011;11628;51.072;3.712;2022-08-01T02:30:00;11.70;;;5.85;;
22924;SDS011;11628;51.072;3.712;2022-08-01T02:32:39;9.63;;;5.90;;
22924;SDS011;11628;51.072;3.712;2022-08-01T02:35:09;10.63;;;6.05;;
22924;SDS011;11628;51.072;3.712;2022-08-01T02:37:40;11.55;;;5.75;;
22924;SDS011;11628;51.072;3.712;2022-08-01T02:40:07;7.10;;;4.65;;
22924;SDS011;11628;51.072;3.712;2022-08-01T02:42:35;8.23;;;4.63;;
22924;SDS011;11628;51.072;3.712;2022-08-01T02:45:03;8.18;;;4.68;;
22924;SDS011;11628;51.072;3.712;2022-08-01T02:47:32;8.68;;;4.25;;
22924;SDS011;11628;51.072;3.712;2022-08-01T02:49:58;7.88;;;4.47;;
22924;SDS011;11628;51.072;3.712;2022-08-01T02:52:25;10.07;;;4.05;;
22924;SDS011;11628;51.072;3.712;2022-08-01T02:54:54;8.18;;;3.00;;
22924;SDS011;11628;51.072;3.712;2022-08-01T02:57:22;4.60;;;3.13;;
22924;SDS011;11628;51.072;3.712;2022-08-01T02:59:49;5.13;;;3.08;;
22924;SDS011;11628;51.072;3.712;2022-08-01T03:02:15;7.03;;;2.75;;
22924;SDS011;11628;51.072;3.712;2022-08-01T03:04:43;5.15;;;2.60;;
22924;SDS011;11628;51.072;3.712;2022-08-01T03:07:10;5.38;;;2.83;;
22924;SDS011;11628;51.072;3.712;2022-08-01T03:09:40;4.38;;;2.60;;
22924;SDS011;11628;51.072;3.712;2022-08-01T03:12:11;5.10;;;2.70;;
22924;SDS011;11628;51.072;3.712;2022-08-01T03:14:40;4.80;;;2.63;;
22924;SDS011;11628;51.072;3.712;2022-08-01T03:17:08;4.90;;;2.42;;
22924;SDS011;11628;51.072;3.712;2022-08-01T03:19:34;5.53;;;2.80;;
22924;SDS011;11628;51.072;3.712;2022-08-01T03:22:02;4.57;;;2.30;;
22924;SDS011;11628;51.072;3.712;2022-08-01T03:24:33;5.13;;;2.72;;
22924;SDS011;11628;51.072;3.712;2022-08-01T03:27:01;4.35;;;2.47;;
22924;SDS011;11628;51.072;3.712;2022-08-01T03:29:28;2.55;;;2.05;;
22924;SDS011;11628;51.072;3.712;2022-08-01T03:31:56;5.32;;;2.25;;
22924;SDS011;11628;51.072;3.712;2022-08-01T03:34:23;7.13;;;3.22;;
22924;SDS011;11628;51.072;3.712;2022-08-01T03:36:53;6.72;;;2.80;;
22924;SDS011;11628;51.072;3.712;2022-08-01T03:39:31;4.53;;;2.20;;
22924;SDS011;11628;51.072;3.712;2022-08-01T03:42:56;4.75;;;2.17;;
22924;SDS011;11628;51.072;3.712;2022-08-01T03:45:46;3.33;;;2.35;;
22924;SDS011;11628;51.072;3.712;2022-08-01T03:48:17;3.28;;;2.38;;
22924;SDS011;11628;51.072;3.712;2022-08-01T03:50:48;4.18;;;2.88;;
22924;SDS011;11628;51.072;3.712;2022-08-01T03:53:15;4.57;;;2.75;;
22924;SDS011;11628;51.072;3.712;2022-08-01T03:55:50;4.50;;;2.75;;
22924;SDS011;11628;51.072;3.712;2022-08-01T03:58:18;3.20;;;2.90;;
22924;SDS011;11628;51.072;3.712;2022-08-01T04:00:45;4.60;;;3.20;;
22924;SDS011;11628;51.072;3.712;2022-08-01T04:03:12;3.92;;;2.90;;
22924;SDS011;11628;51.072;3.712;2022-08-01T04:05:40;4.85;;;3.63;;
22924;SDS011;11628;51.072;3.712;2022-08-01T04:08:07;4.88;;;3.28;;
22924;SDS011;11628;51.072;3.712;2022-08-01T04:10:33;4.72;;;3.80;;
22924;SDS011;11628;51.072;3.712;2022-08-01T04:12:59;5.18;;;3.63;;
22924;SDS011;11628;51.072;3.712;2022-08-01T04:15:25;5.38;;;3.35;;
22924;SDS011;11628;51.072;3.712;2022-08-01T04:17:51;4.00;;;3.30;;
22924;SDS011;11628;51.072;3.712;2022-08-01T04:20:16;5.10;;;3.40;;
22924;SDS011;11628;51.072;3.712;2022-08-01T04:22:42;4.85;;;3.30;;
22924;SDS011;11628;51.072;3.712;2022-08-01T04:25:19;6.20;;;3.60;;
22924;SDS011;11628;51.072;3.712;2022-08-01T04:27:50;5.45;;;3.10;;
22924;SDS011;11628;51.072;3.712;2022-08-01T04:30:19;5.03;;;2.85;;
22924;SDS011;11628;51.072;3.712;2022-08-01T04:32:49;7.90;;;6.03;;
22924;SDS011;11628;51.072;3.712;2022-08-01T04:35:18;11.18;;;3.53;;
22924;SDS011;11628;51.072;3.712;2022-08-01T04:37:46;5.15;;;3.28;;
22924;SDS011;11628;51.072;3.712;2022-08-01T04:40:16;4.40;;;3.15;;
22924;SDS011;11628;51.072;3.712;2022-08-01T04:42:42;4.68;;;3.22;;
22924;SDS011;11628;51.072;3.712;2022-08-01T04:45:08;4.75;;;3.28;;
22924;SDS011;11628;51.072;3.712;2022-08-01T04:47:34;7.18;;;4.03;;
22924;SDS011;11628;51.072;3.712;2022-08-01T04:50:03;3.97;;;2.92;;
22924;SDS011;11628;51.072;3.712;2022-08-01T04:52:35;4.32;;;2.80;;
22924;SDS011;11628;51.072;3.712;2022-08-01T04:55:02;5.50;;;3.00;;
22924;SDS011;11628;51.072;3.712;2022-08-01T04:57:29;6.15;;;3.28;;
22924;SDS011;11628;51.072;3.712;2022-08-01T04:59:55;5.03;;;3.70;;
22924;SDS011;11628;51.072;3.712;2022-08-01T05:02:24;5.50;;;3.40;;
22924;SDS011;11628;51.072;3.712;2022-08-01T05:04:53;7.07;;;3.58;;
22924;SDS011;11628;51.072;3.712;2022-08-01T05:07:20;6.88;;;3.45;;
22924;SDS011;11628;51.072;3.712;2022-08-01T05:09:46;3.67;;;3.35;;
22924;SDS011;11628;51.072;3.712;2022-08-01T05:12:12;4.00;;;3.42;;
22924;SDS011;11628;51.072;3.712;2022-08-01T05:14:38;5.15;;;3.40;;
22924;SDS011;11628;51.072;3.712;2022-08-01T05:17:05;5.50;;;3.30;;
22924;SDS011;11628;51.072;3.712;2022-08-01T05:19:32;3.80;;;3.15;;
22924;SDS011;11628;51.072;3.712;2022-08-01T05:21:59;4.70;;;2.97;;
22924;SDS011;11628;51.072;3.712;2022-08-01T05:24:28;4.43;;;2.95;;
22924;SDS011;11628;51.072;3.712;2022-08-01T05:26:55;4.05;;;3.05;;
22924;SDS011;11628;51.072;3.712;2022-08-01T05:29:22;7.47;;;3.20;;
22924;SDS011;11628;51.072;3.712;2022-08-01T05:31:48;4.95;;;3.10;;
22924;SDS011;11628;51.072;3.712;2022-08-01T05:34:14;5.70;;;3.05;;
22924;SDS011;11628;51.072;3.712;2022-08-01T05:36:40;6.57;;;2.83;;
22924;SDS011;11628;51.072;3.712;2022-08-01T05:39:06;4.57;;;3.45;;
22924;SDS011;11628;51.072;3.712;2022-08-01T05:41:31;8.07;;;3.25;;
22924;SDS011;11628;51.072;3.712;2022-08-01T05:43:57;5.18;;;3.22;;
22924;SDS011;11628;51.072;3.712;2022-08-01T05:46:23;4.43;;;3.22;;
22924;SDS011;11628;51.072;3.712;2022-08-01T05:48:48;5.82;;;3.58;;
22924;SDS011;11628;51.072;3.712;2022-08-01T05:51:14;5.60;;;3.40;;
22924;SDS011;11628;51.072;3.712;2022-08-01T05:53:40;4.45;;;3.08;;
22924;SDS011;11628;51.072;3.712;2022-08-01T05:56:06;4.05;;;2.97;;
22924;SDS011;11628;51.072;3.712;2022-08-01T05:58:31;5.22;;;3.28;;
22924;SDS011;11628;51.072;3.712;2022-08-01T06:00:57;5.57;;;3.25;;
22924;SDS011;11628;51.072;3.712;2022-08-01T06:03:23;4.18;;;3.05;;
22924;SDS011;11628;51.072;3.712;2022-08-01T06:05:51;3.65;;;2.80;;
22924;SDS011;11628;51.072;3.712;2022-08-01T06:08:17;4.50;;;2.78;;
22924;SDS011;11628;51.072;3.712;2022-08-01T06:10:43;2.45;;;2.17;;
22924;SDS011;11628;51.072;3.712;2022-08-01T06:13:08;5.80;;;3.65;;
22924;SDS011;11628;51.072;3.712;2022-08-01T06:15:34;4.35;;;3.05;;
22924;SDS011;11628;51.072;3.712;2022-08-01T06:18:00;3.72;;;3.00;;
22924;SDS011;11628;51.072;3.712;2022-08-01T06:20:26;3.45;;;3.15;;
22924;SDS011;11628;51.072;3.712;2022-08-01T06:22:52;5.57;;;2.90;;
22924;SDS011;11628;51.072;3.712;2022-08-01T06:25:18;3.10;;;1.90;;
22924;SDS011;11628;51.072;3.712;2022-08-01T06:27:44;2.80;;;1.77;;
22924;SDS011;11628;51.072;3.712;2022-08-01T06:30:10;4.22;;;1.83;;
22924;SDS011;11628;51.072;3.712;2022-08-01T06:32:35;4.43;;;2.05;;
22924;SDS011;11628;51.072;3.712;2022-08-01T06:35:01;4.07;;;2.00;;
22924;SDS011;11628;51.072;3.712;2022-08-01T06:37:30;5.40;;;2.15;;
22924;SDS011;11628;51.072;3.712;2022-08-01T06:40:07;3.17;;;1.75;;
22924;SDS011;11628;51.072;3.712;2022-08-01T06:42:34;3.63;;;2.03;;
22924;SDS011;11628;51.072;3.712;2022-08-01T06:45:10;6.07;;;1.92;;
22924;SDS011;11628;51.072;3.712;2022-08-01T06:47:37;2.15;;;1.92;;
22924;SDS011;11628;51.072;3.712;2022-08-01T06:50:05;3.30;;;1.88;;
22924;SDS011;11628;51.072;3.712;2022-08-01T06:52:32;4.50;;;1.80;;
22924;SDS011;11628;51.072;3.712;2022-08-01T06:54:58;3.53;;;1.95;;
22924;SDS011;11628;51.072;3.712;2022-08-01T06:57:24;3.92;;;1.88;;
22924;SDS011;11628;51.072;3.712;2022-08-01T06:59:50;2.58;;;1.38;;
22924;SDS011;11628;51.072;3.712;2022-08-01T07:02:16;3.78;;;1.70;;
22924;SDS011;11628;51.072;3.712;2022-08-01T07:04:42;3.47;;;1.20;;
22924;SDS011;11628;51.072;3.712;2022-08-01T07:07:07;5.50;;;4.25;;
22924;SDS011;11628;51.072;3.712;2022-08-01T07:09:33;2.65;;;1.42;;
22924;SDS011;11628;51.072;3.712;2022-08-01T07:11:59;4.50;;;2.33;;
22924;SDS011;11628;51.072;3.712;2022-08-01T07:14:25;3.70;;;2.60;;
22924;SDS011;11628;51.072;3.712;2022-08-01T07:16:51;1.45;;;0.80;;
22924;SDS011;11628;51.072;3.712;2022-08-01T07:19:17;0.95;;;0.63;;
22924;SDS011;11628;51.072;3.712;2022-08-01T07:21:43;2.10;;;0.90;;
22924;SDS011;11628;51.072;3.712;2022-08-01T07:24:09;4.10;;;3.80;;
22924;SDS011;11628;51.072;3.712;2022-08-01T07:26:37;1.17;;;0.82;;
22924;SDS011;11628;51.072;3.712;2022-08-01T07:29:03;1.70;;;0.95;;
22924;SDS011;11628;51.072;3.712;2022-08-01T07:31:30;2.45;;;1.20;;
22924;SDS011;11628;51.072;3.712;2022-08-01T07:33:55;1.67;;;1.45;;
22924;SDS011;11628;51.072;3.712;2022-08-01T07:36:21;2.80;;;1.80;;
22924;SDS011;11628;51.072;3.712;2022-08-01T07:38:47;0.98;;;0.63;;
22924;SDS011;11628;51.072;3.712;2022-08-01T07:41:13;2.92;;;0.70;;
22924;SDS011;11628;51.072;3.712;2022-08-01T07:43:40;1.35;;;0.70;;
22924;SDS011;11628;51.072;3.712;2022-08-01T07:46:06;1.17;;;0.65;;
22924;SDS011;11628;51.072;3.712;2022-08-01T07:48:32;2.30;;;0.90;;
22924;SDS011;11628;51.072;3.712;2022-08-01T07:50:58;7.18;;;5.70;;
22924;SDS011;11628;51.072;3.712;2022-08-01T07:53:24;1.45;;;0.90;;
22924;SDS011;11628;51.072;3.712;2022-08-01T07:55:50;4.57;;;0.82;;
22924;SDS011;11628;51.072;3.712;2022-08-01T07:58:16;2.95;;;0.77;;
22924;SDS011;11628;51.072;3.712;2022-08-01T08:00:42;2.85;;;0.80;;
22924;SDS011;11628;51.072;3.712;2022-08-01T08:03:08;1.90;;;0.80;;
22924;SDS011;11628;51.072;3.712;2022-08-01T08:05:34;2.95;;;0.90;;
22924;SDS011;11628;51.072;3.712;2022-08-01T08:08:06;1.50;;;1.20;;
22924;SDS011;11628;51.072;3.712;2022-08-01T08:10:33;3.03;;;1.45;;
22924;SDS011;11628;51.072;3.712;2022-08-01T08:12:59;1.63;;;0.95;;
22924;SDS011;11628;51.072;3.712;2022-08-01T08:15:26;1.88;;;1.50;;
22924;SDS011;11628;51.072;3.712;2022-08-01T08:17:52;2.42;;;1.67;;
22924;SDS011;11628;51.072;3.712;2022-08-01T08:20:18;1.65;;;1.55;;
22924;SDS011;11628;51.072;3.712;2022-08-01T08:22:46;2.30;;;1.33;;
22924;SDS011;11628;51.072;3.712;2022-08-01T08:25:12;3.38;;;2.50;;
22924;SDS011;11628;51.072;3.712;2022-08-01T08:27:37;3.38;;;2.03;;
22924;SDS011;11628;51.072;3.712;2022-08-01T08:30:04;2.92;;;1.88;;
22924;SDS011;11628;51.072;3.712;2022-08-01T08:32:32;2.05;;;1.80;;
22924;SDS011;11628;51.072;3.712;2022-08-01T08:34:59;3.70;;;1.90;;
22924;SDS011;11628;51.072;3.712;2022-08-01T08:37:25;2.67;;;1.00;;
22924;SDS011;11628;51.072;3.712;2022-08-01T08:39:50;1.05;;;0.77;;
22924;SDS011;11628;51.072;3.712;2022-08-01T08:42:16;1.30;;;0.70;;
22924;SDS011;11628;51.072;3.712;2022-08-01T08:44:43;2.85;;;0.80;;
22924;SDS011;11628;51.072;3.712;2022-08-01T08:47:13;2.03;;;0.80;;
22924;SDS011;11628;51.072;3.712;2022-08-01T08:49:42;2.88;;;1.23;;
22924;SDS011;11628;51.072;3.712;2022-08-01T08:52:09;4.03;;;1.40;;
22924;SDS011;11628;51.072;3.712;2022-08-01T08:54:37;1.65;;;0.80;;
22924;SDS011;11628;51.072;3.712;2022-08-01T08:57:04;1.20;;;0.70;;
22924;SDS011;11628;51.072;3.712;2022-08-01T08:59:30;1.70;;;0.60;;
22924;SDS011;11628;51.072;3.712;2022-08-01T09:01:57;1.75;;;0.60;;
22924;SDS011;11628;51.072;3.712;2022-08-01T09:04:23;1.02;;;0.50;;
22924;SDS011;11628;51.072;3.712;2022-08-01T09:06:50;1.90;;;0.60;;
22924;SDS011;11628;51.072;3.712;2022-08-01T09:09:17;2.60;;;0.80;;
22924;SDS011;11628;51.072;3.712;2022-08-01T09:11:42;1.98;;;0.88;;
22924;SDS011;11628;51.072;3.712;2022-08-01T09:14:09;0.75;;;0.57;;
22924;SDS011;11628;51.072;3.712;2022-08-01T09:16:40;2.75;;;0.70;;
22924;SDS011;11628;51.072;3.712;2022-08-01T09:19:09;2.45;;;0.90;;
22924;SDS011;11628;51.072;3.712;2022-08-01T09:21:36;2.60;;;0.80;;
22924;SDS011;11628;51.072;3.712;2022-08-01T09:24:03;1.98;;;0.80;;
22924;SDS011;11628;51.072;3.712;2022-08-01T09:26:34;1.35;;;0.70;;
22924;SDS011;11628;51.072;3.712;2022-08-01T09:29:02;2.28;;;0.73;;
22924;SDS011;11628;51.072;3.712;2022-08-01T09:31:39;1.30;;;0.70;;
22924;SDS011;11628;51.072;3.712;2022-08-01T09:34:06;1.85;;;0.73;;
22924;SDS011;11628;51.072;3.712;2022-08-01T09:36:45;2.13;;;0.80;;
22924;SDS011;11628;51.072;3.712;2022-08-01T09:39:35;2.20;;;1.38;;
22924;SDS011;11628;51.072;3.712;2022-08-01T09:44:49;1.75;;;1.00;;
22924;SDS011;11628;51.072;3.712;2022-08-01T09:47:15;1.73;;;0.70;;
22924;SDS011;11628;51.072;3.712;2022-08-01T09:49:43;1.83;;;0.73;;
22924;SDS011;11628;51.072;3.712;2022-08-01T09:52:11;1.58;;;0.90;;
22924;SDS011;11628;51.072;3.712;2022-08-01T09:55:04;2.17;;;0.70;;
22924;SDS011;11628;51.072;3.712;2022-08-01T09:57:31;1.27;;;0.60;;
22924;SDS011;11628;51.072;3.712;2022-08-01T09:59:58;1.50;;;0.88;;
22924;SDS011;11628;51.072;3.712;2022-08-01T10:02:29;2.45;;;1.00;;
22924;SDS011;11628;51.072;3.712;2022-08-01T10:05:00;2.13;;;0.70;;
22924;SDS011;11628;51.072;3.712;2022-08-01T10:07:30;1.67;;;0.88;;
22924;SDS011;11628;51.072;3.712;2022-08-01T10:09:59;1.60;;;0.80;;
22924;SDS011;11628;51.072;3.712;2022-08-01T10:12:40;2.05;;;0.80;;
22924;SDS011;11628;51.072;3.712;2022-08-01T10:15:07;1.92;;;0.68;;
22924;SDS011;11628;51.072;3.712;2022-08-01T10:17:34;2.45;;;0.90;;
22924;SDS011;11628;51.072;3.712;2022-08-01T10:20:02;1.83;;;0.80;;
22924;SDS011;11628;51.072;3.712;2022-08-01T10:22:30;2.95;;;0.88;;
22924;SDS011;11628;51.072;3.712;2022-08-01T10:24:56;2.28;;;0.85;;
22924;SDS011;11628;51.072;3.712;2022-08-01T10:27:25;1.58;;;0.90;;
22924;SDS011;11628;51.072;3.712;2022-08-01T10:30:00;3.58;;;0.90;;
22924;SDS011;11628;51.072;3.712;2022-08-01T10:32:33;2.08;;;0.88;;
22924;SDS011;11628;51.072;3.712;2022-08-01T10:35:00;1.40;;;0.82;;
22924;SDS011;11628;51.072;3.712;2022-08-01T10:37:26;2.28;;;0.90;;
22924;SDS011;11628;51.072;3.712;2022-08-01T10:39:53;1.98;;;1.10;;
22924;SDS011;11628;51.072;3.712;2022-08-01T10:42:19;2.67;;;1.40;;
22924;SDS011;11628;51.072;3.712;2022-08-01T10:44:45;2.25;;;1.20;;
22924;SDS011;11628;51.072;3.712;2022-08-01T10:47:17;3.17;;;1.17;;
22924;SDS011;11628;51.072;3.712;2022-08-01T10:49:49;2.88;;;1.02;;
22924;SDS011;11628;51.072;3.712;2022-08-01T10:52:20;2.50;;;1.10;;
22924;SDS011;11628;51.072;3.712;2022-08-01T10:54:46;2.25;;;1.10;;
22924;SDS011;11628;51.072;3.712;2022-08-01T10:57:12;3.10;;;1.20;;
22924;SDS011;11628;51.072;3.712;2022-08-01T10:59:50;2.33;;;1.20;;
22924;SDS011;11628;51.072;3.712;2022-08-01T11:02:25;4.30;;;1.35;;
22924;SDS011;11628;51.072;3.712;2022-08-01T11:05:12;4.78;;;1.30;;
22924;SDS011;11628;51.072;3.712;2022-08-01T11:07:48;2.35;;;1.48;;
22924;SDS011;11628;51.072;3.712;2022-08-01T11:13:03;3.28;;;1.30;;
22924;SDS011;11628;51.072;3.712;2022-08-01T11:15:32;2.20;;;1.10;;
22924;SDS011;11628;51.072;3.712;2022-08-01T11:18:03;3.40;;;1.10;;
22924;SDS011;11628;51.072;3.712;2022-08-01T11:20:54;1.65;;;1.00;;
22924;SDS011;11628;51.072;3.712;2022-08-01T11:23:22;1.70;;;1.17;;
22924;SDS011;11628;51.072;3.712;2022-08-01T11:30:43;2.72;;;1.45;;
22924;SDS011;11628;51.072;3.712;2022-08-01T11:33:11;2.75;;;1.25;;
22924;SDS011;11628;51.072;3.712;2022-08-01T11:35:38;2.20;;;1.25;;
22924;SDS011;11628;51.072;3.712;2022-08-01T11:38:39;2.65;;;1.10;;
22924;SDS011;11628;51.072;3.712;2022-08-01T11:41:14;2.85;;;1.10;;
22924;SDS011;11628;51.072;3.712;2022-08-01T11:43:58;1.45;;;0.93;;
22924;SDS011;11628;51.072;3.712;2022-08-01T11:49:42;1.58;;;0.98;;
22924;SDS011;11628;51.072;3.712;2022-08-01T11:52:30;1.67;;;0.85;;
22924;SDS011;11628;51.072;3.712;2022-08-01T11:57:27;1.38;;;1.10;;
22924;SDS011;11628;51.072;3.712;2022-08-01T12:02:38;2.55;;;1.05;;
22924;SDS011;11628;51.072;3.712;2022-08-01T12:05:07;1.92;;;1.00;;
22924;SDS011;11628;51.072;3.712;2022-08-01T12:07:36;4.22;;;0.90;;
22924;SDS011;11628;51.072;3.712;2022-08-01T12:10:16;4.07;;;0.90;;
22924;SDS011;11628;51.072;3.712;2022-08-01T12:12:50;3.22;;;1.42;;
22924;SDS011;11628;51.072;3.712;2022-08-01T12:15:21;1.63;;;0.90;;
22924;SDS011;11628;51.072;3.712;2022-08-01T12:17:55;4.45;;;3.25;;
22924;SDS011;11628;51.072;3.712;2022-08-01T12:20:23;5.47;;;1.15;;
22924;SDS011;11628;51.072;3.712;2022-08-01T12:22:53;2.33;;;1.08;;
22924;SDS011;11628;51.072;3.712;2022-08-01T12:25:20;2.35;;;1.00;;
22924;SDS011;11628;51.072;3.712;2022-08-01T12:27:47;4.13;;;2.08;;
22924;SDS011;11628;51.072;3.712;2022-08-01T12:30:14;1.80;;;1.10;;
22924;SDS011;11628;51.072;3.712;2022-08-01T12:32:42;2.63;;;1.05;;
22924;SDS011;11628;51.072;3.712;2022-08-01T12:35:13;2.13;;;1.00;;
22924;SDS011;11628;51.072;3.712;2022-08-01T12:37:42;1.52;;;0.90;;
22924;SDS011;11628;51.072;3.712;2022-08-01T12:40:10;1.90;;;0.85;;
22924;SDS011;11628;51.072;3.712;2022-08-01T12:42:45;2.72;;;1.00;;
22924;SDS011;11628;51.072;3.712;2022-08-01T12:45:12;1.55;;;0.95;;
22924;SDS011;11628;51.072;3.712;2022-08-01T12:47:50;1.98;;;0.80;;
22924;SDS011;11628;51.072;3.712;2022-08-01T12:50:18;4.70;;;1.10;;
22924;SDS011;11628;51.072;3.712;2022-08-01T12:52:47;3.40;;;1.13;;
22924;SDS011;11628;51.072;3.712;2022-08-01T12:55:15;1.55;;;0.80;;
22924;SDS011;11628;51.072;3.712;2022-08-01T12:57:46;3.88;;;1.42;;
22924;SDS011;11628;51.072;3.712;2022-08-01T13:02:50;2.70;;;1.33;;
22924;SDS011;11628;51.072;3.712;2022-08-01T13:05:26;2.33;;;1.25;;
22924;SDS011;11628;51.072;3.712;2022-08-01T13:07:52;2.22;;;1.20;;
22924;SDS011;11628;51.072;3.712;2022-08-01T13:10:26;2.95;;;1.50;;
22924;SDS011;11628;51.072;3.712;2022-08-01T13:12:55;4.30;;;1.25;;
22924;SDS011;11628;51.072;3.712;2022-08-01T13:15:23;2.85;;;1.30;;
22924;SDS011;11628;51.072;3.712;2022-08-01T13:17:51;1.73;;;1.08;;
22924;SDS011;11628;51.072;3.712;2022-08-01T13:20:22;3.47;;;1.70;;
22924;SDS011;11628;51.072;3.712;2022-08-01T13:22:52;1.73;;;1.10;;
22924;SDS011;11628;51.072;3.712;2022-08-01T13:25:18;2.42;;;1.10;;
22924;SDS011;11628;51.072;3.712;2022-08-01T13:27:44;1.88;;;0.70;;
22924;SDS011;11628;51.072;3.712;2022-08-01T13:30:10;4.00;;;0.90;;
22924;SDS011;11628;51.072;3.712;2022-08-01T13:32:36;2.78;;;0.80;;
22924;SDS011;11628;51.072;3.712;2022-08-01T13:35:03;2.35;;;0.70;;
22924;SDS011;11628;51.072;3.712;2022-08-01T13:37:30;1.17;;;0.50;;
22924;SDS011;11628;51.072;3.712;2022-08-01T13:39:55;4.28;;;1.10;;
22924;SDS011;11628;51.072;3.712;2022-08-01T13:42:21;1.27;;;0.68;;
22924;SDS011;11628;51.072;3.712;2022-08-01T13:44:47;2.42;;;0.73;;
22924;SDS011;11628;51.072;3.712;2022-08-01T13:47:13;3.58;;;0.55;;
22924;SDS011;11628;51.072;3.712;2022-08-01T13:49:39;3.22;;;1.00;;
22924;SDS011;11628;51.072;3.712;2022-08-01T13:52:05;1.80;;;0.60;;
22924;SDS011;11628;51.072;3.712;2022-08-01T13:54:31;2.35;;;0.80;;
22924;SDS011;11628;51.072;3.712;2022-08-01T13:56:57;2.72;;;0.85;;
22924;SDS011;11628;51.072;3.712;2022-08-01T13:59:24;2.42;;;0.52;;
22924;SDS011;11628;51.072;3.712;2022-08-01T14:01:50;2.28;;;0.65;;
22924;SDS011;11628;51.072;3.712;2022-08-01T14:04:16;1.35;;;0.77;;
22924;SDS011;11628;51.072;3.712;2022-08-01T14:06:41;1.55;;;0.70;;
22924;SDS011;11628;51.072;3.712;2022-08-01T14:09:07;4.20;;;0.77;;
22924;SDS011;11628;51.072;3.712;2022-08-01T14:11:33;2.75;;;0.68;;
22924;SDS011;11628;51.072;3.712;2022-08-01T14:13:59;3.25;;;0.73;;
22924;SDS011;11628;51.072;3.712;2022-08-01T14:16:25;3.80;;;0.80;;
22924;SDS011;11628;51.072;3.712;2022-08-01T14:18:51;2.25;;;0.60;;
22924;SDS011;11628;51.072;3.712;2022-08-01T14:21:17;2.10;;;0.50;;
22924;SDS011;11628;51.072;3.712;2022-08-01T14:23:44;0.95;;;0.60;;
22924;SDS011;11628;51.072;3.712;2022-08-01T14:26:10;2.50;;;0.60;;
22924;SDS011;11628;51.072;3.712;2022-08-01T14:28:37;2.15;;;1.05;;
22924;SDS011;11628;51.072;3.712;2022-08-01T14:31:03;2.10;;;0.50;;
22924;SDS011;11628;51.072;3.712;2022-08-01T14:33:31;1.63;;;0.50;;
22924;SDS011;11628;51.072;3.712;2022-08-01T14:35:57;3.13;;;0.60;;
22924;SDS011;11628;51.072;3.712;2022-08-01T14:38:23;3.80;;;1.30;;
22924;SDS011;11628;51.072;3.712;2022-08-01T14:40:49;3.42;;;0.70;;
22924;SDS011;11628;51.072;3.712;2022-08-01T14:43:18;2.45;;;0.77;;
22924;SDS011;11628;51.072;3.712;2022-08-01T14:45:44;1.50;;;0.65;;
22924;SDS011;11628;51.072;3.712;2022-08-01T14:48:09;2.22;;;0.80;;
22924;SDS011;11628;51.072;3.712;2022-08-01T14:50:35;0.80;;;0.50;;
22924;SDS011;11628;51.072;3.712;2022-08-01T14:53:01;3.05;;;0.80;;
22924;SDS011;11628;51.072;3.712;2022-08-01T14:55:27;2.08;;;0.85;;
22924;SDS011;11628;51.072;3.712;2022-08-01T14:57:53;1.13;;;0.63;;
22924;SDS011;11628;51.072;3.712;2022-08-01T15:00:19;2.25;;;0.52;;
22924;SDS011;11628;51.072;3.712;2022-08-01T15:02:46;0.85;;;0.60;;
22924;SDS011;11628;51.072;3.712;2022-08-01T15:05:12;2.15;;;0.80;;
22924;SDS011;11628;51.072;3.712;2022-08-01T15:07:38;3.30;;;1.10;;
22924;SDS011;11628;51.072;3.712;2022-08-01T15:10:04;2.30;;;0.80;;
22924;SDS011;11628;51.072;3.712;2022-08-01T15:12:31;2.03;;;0.70;;
22924;SDS011;11628;51.072;3.712;2022-08-01T15:14:57;1.52;;;0.70;;
22924;SDS011;11628;51.072;3.712;2022-08-01T15:17:29;1.58;;;0.60;;